createdAt,value
2024-05-09T00:00:42.032Z,1.98
2024-05-09T00:03:10.490Z,1.65
2024-05-09T00:05:41.970Z,2.25
2024-05-09T00:08:09.863Z,1.83
2024-05-09T00:10:38.933Z,1.80
2024-05-09T00:13:07.427Z,2.20
2024-05-09T00:15:35.070Z,1.70
2024-05-09T00:18:02.647Z,1.95
2024-05-09T00:20:37.440Z,2.10
2024-05-09T00:23:07.760Z,1.88
2024-05-09T00:25:35.280Z,1.60
2024-05-09T00:28:02.421Z,1.85
2024-05-09T00:30:34.365Z,1.83
2024-05-09T00:33:04.578Z,1.65
2024-05-09T00:35:32.334Z,1.70
2024-05-09T00:37:59.240Z,1.88
2024-05-09T00:40:35.536Z,1.90
2024-05-09T00:43:06.568Z,1.90
2024-05-09T00:45:34.132Z,2.00
2024-05-09T00:48:02.430Z,1.80
2024-05-09T00:50:35.749Z,1.80
2024-05-09T00:53:05.174Z,1.70
2024-05-09T00:55:32.042Z,1.67
2024-05-09T00:57:58.732Z,1.75
2024-05-09T01:00:31.748Z,1.80
2024-05-09T01:03:05.656Z,1.80
2024-05-09T01:05:34.698Z,1.90
2024-05-09T01:08:01.816Z,1.80
2024-05-09T01:10:34.292Z,1.67
2024-05-09T01:13:06.086Z,2.03
2024-05-09T01:15:33.425Z,1.65
2024-05-09T01:18:20.552Z,1.55
2024-05-09T01:20:47.436Z,1.88
2024-05-09T01:23:15.916Z,1.60
2024-05-09T01:25:44.352Z,1.73
2024-05-09T01:28:11.268Z,1.85
2024-05-09T01:30:38.607Z,1.80
2024-05-09T01:33:07.555Z,1.70
2024-05-09T01:35:36.333Z,1.73
2024-05-09T01:38:03.219Z,1.42
2024-05-09T01:40:37.167Z,1.95
2024-05-09T01:43:06.845Z,1.80
2024-05-09T01:45:33.926Z,1.58
2024-05-09T01:48:01.042Z,1.67
2024-05-09T01:50:37.596Z,1.70
2024-05-09T01:53:08.652Z,1.85
2024-05-09T01:55:35.594Z,1.48
2024-05-09T01:58:02.325Z,1.60
2024-05-09T02:00:37.564Z,1.55
2024-05-09T02:03:10.039Z,1.90
2024-05-09T02:05:37.777Z,1.70
2024-05-09T02:08:05.650Z,1.52
2024-05-09T02:10:33.320Z,1.80
2024-05-09T02:13:00.497Z,1.70
2024-05-09T02:15:27.213Z,1.95
2024-05-09T02:17:54.340Z,1.77
2024-05-09T02:20:30.224Z,1.80
2024-05-09T02:23:04.613Z,1.60
2024-05-09T02:25:31.995Z,1.50
2024-05-09T02:27:58.960Z,1.80
2024-05-09T02:30:35.696Z,1.55
2024-05-09T02:33:08.586Z,1.70
2024-05-09T02:35:36.106Z,1.70
2024-05-09T02:38:03.088Z,1.70
2024-05-09T02:40:36.614Z,1.60
2024-05-09T02:43:10.111Z,1.70
2024-05-09T02:45:38.280Z,1.80
2024-05-09T02:48:05.901Z,1.60
2024-05-09T02:50:38.053Z,1.50
2024-05-09T02:53:10.157Z,1.70
2024-05-09T02:55:40.784Z,1.70
2024-05-09T02:58:07.532Z,1.48
2024-05-09T03:00:39.137Z,1.60
2024-05-09T03:03:09.573Z,1.60
2024-05-09T03:05:37.923Z,1.70
2024-05-09T03:08:05.145Z,1.80
2024-05-09T03:10:36.213Z,1.85
2024-05-09T03:13:08.293Z,1.60
2024-05-09T03:15:35.352Z,1.80
2024-05-09T03:18:02.514Z,1.52
2024-05-09T03:20:34.195Z,1.58
2024-05-09T03:23:02.960Z,1.67
2024-05-09T03:25:30.079Z,1.85
2024-05-09T03:27:56.871Z,1.55
2024-05-09T03:30:38.197Z,1.75
2024-05-09T03:33:17.708Z,1.70
2024-05-09T03:35:46.138Z,1.70
2024-05-09T03:38:13.114Z,1.60
2024-05-09T03:40:50.247Z,1.50
2024-05-09T03:43:17.934Z,1.48
2024-05-09T03:45:44.891Z,1.77
2024-05-09T03:48:11.990Z,1.50
2024-05-09T03:50:39.010Z,1.60
2024-05-09T03:53:06.130Z,1.50
2024-05-09T03:55:32.982Z,1.50
2024-05-09T03:57:59.906Z,1.92
2024-05-09T04:00:35.378Z,1.67
2024-05-09T04:03:07.719Z,1.58
2024-05-09T04:05:38.141Z,1.52
2024-05-09T04:08:05.701Z,1.60
2024-05-09T04:10:34.258Z,1.60
2024-05-09T04:13:02.659Z,1.65
2024-05-09T04:15:29.683Z,1.42
2024-05-09T04:17:56.922Z,1.60
2024-05-09T04:20:33.358Z,1.60
2024-05-09T04:23:11.278Z,1.73
2024-05-09T04:25:38.197Z,1.65
2024-05-09T04:28:05.877Z,1.42
2024-05-09T04:30:38.579Z,1.60
2024-05-09T04:33:09.548Z,1.42
2024-05-09T04:35:38.716Z,1.73
2024-05-09T04:38:06.174Z,1.77
2024-05-09T04:40:36.008Z,1.65
2024-05-09T04:43:07.700Z,1.50
2024-05-09T04:45:34.654Z,1.73
2024-05-09T04:48:02.282Z,1.50
2024-05-09T04:50:35.810Z,1.63
2024-05-09T04:53:06.382Z,1.83
2024-05-09T04:55:33.940Z,1.73
2024-05-09T04:58:01.149Z,1.50
2024-05-09T05:00:35.764Z,1.65
2024-05-09T05:03:07.372Z,1.30
2024-05-09T05:05:37.824Z,1.50
2024-05-09T05:08:05.208Z,1.52
2024-05-09T05:10:36.117Z,1.60
2024-05-09T05:13:18.141Z,1.23
2024-05-09T05:15:49.106Z,1.42
2024-05-09T05:18:16.268Z,1.58
2024-05-09T05:20:43.292Z,1.30
2024-05-09T05:23:14.145Z,1.52
2024-05-09T05:25:41.551Z,1.48
2024-05-09T05:28:08.311Z,1.20
2024-05-09T05:30:37.631Z,1.58
2024-05-09T05:33:05.258Z,1.58
2024-05-09T05:35:32.149Z,1.38
2024-05-09T05:37:58.997Z,1.30
2024-05-09T05:40:33.230Z,1.40
2024-05-09T05:43:04.948Z,1.40
2024-05-09T05:45:31.689Z,1.50
2024-05-09T05:47:58.611Z,1.10
2024-05-09T05:50:32.655Z,1.57
2024-05-09T05:53:03.397Z,1.38
2024-05-09T05:55:30.224Z,1.60
2024-05-09T05:57:56.960Z,1.38
2024-05-09T06:00:29.988Z,1.40
2024-05-09T06:03:04.972Z,1.50
2024-05-09T06:05:32.165Z,1.48
2024-05-09T06:07:59.261Z,1.27
2024-05-09T06:10:30.623Z,1.60
2024-05-09T06:13:04.697Z,1.40
2024-05-09T06:15:31.440Z,1.35
2024-05-09T06:17:58.594Z,1.30
2024-05-09T06:20:34.590Z,1.27
2024-05-09T06:23:04.315Z,1.55
2024-05-09T06:25:31.311Z,1.50
2024-05-09T06:27:58.010Z,1.50
2024-05-09T06:30:30.525Z,1.60
2024-05-09T06:33:05.835Z,1.20
2024-05-09T06:35:33.524Z,1.55
2024-05-09T06:38:00.596Z,1.40
2024-05-09T06:40:36.174Z,1.60
2024-05-09T06:43:05.594Z,1.23
2024-05-09T06:45:32.495Z,1.40
2024-05-09T06:47:59.507Z,1.45
2024-05-09T06:50:28.723Z,1.23
2024-05-09T06:53:02.642Z,1.45
2024-05-09T06:55:29.529Z,1.48
2024-05-09T06:57:56.334Z,1.35
2024-05-09T07:00:30.556Z,1.33
2024-05-09T07:03:12.755Z,1.23
2024-05-09T07:05:41.119Z,1.40
2024-05-09T07:08:08.183Z,1.10
2024-05-09T07:10:36.305Z,1.10
2024-05-09T07:13:07.908Z,1.38
2024-05-09T07:15:34.619Z,1.42
2024-05-09T07:18:01.437Z,1.40
2024-05-09T07:20:34.323Z,1.50
2024-05-09T07:23:03.135Z,1.30
2024-05-09T07:25:30.280Z,1.23
2024-05-09T07:27:57.339Z,1.30
2024-05-09T07:30:32.573Z,1.52
2024-05-09T07:33:01.645Z,1.20
2024-05-09T07:35:29.350Z,1.23
2024-05-09T07:37:56.383Z,1.17
2024-05-09T07:42:52.772Z,1.10
2024-05-09T07:45:39.675Z,1.25
2024-05-09T07:53:36.432Z,1.38
2024-05-09T07:55:53.912Z,1.45
2024-05-09T07:58:20.819Z,1.15
2024-05-09T08:00:47.601Z,1.65
2024-05-09T08:03:14.446Z,1.42
2024-05-09T08:05:41.501Z,1.00
2024-05-09T08:08:08.871Z,1.20
2024-05-09T08:10:35.676Z,1.15
2024-05-09T08:13:02.688Z,1.30
2024-05-09T08:15:29.699Z,1.40
2024-05-09T08:17:56.678Z,1.25
2024-05-09T08:20:30.942Z,1.23
2024-05-09T08:23:01.632Z,1.08
2024-05-09T08:25:28.572Z,1.30
2024-05-09T08:27:55.362Z,1.40
2024-05-09T08:30:29.798Z,1.40
2024-05-09T08:33:03.670Z,1.13
2024-05-09T08:35:30.476Z,0.98
2024-05-09T08:37:57.429Z,1.10
2024-05-09T08:40:30.992Z,1.30
2024-05-09T08:43:02.012Z,1.33
2024-05-09T08:45:28.841Z,1.13
2024-05-09T08:47:55.784Z,1.20
2024-05-09T08:50:31.782Z,1.17
2024-05-09T08:53:05.035Z,1.10
2024-05-09T08:55:31.847Z,1.10
2024-05-09T08:57:59.234Z,1.20
2024-05-09T09:00:35.521Z,1.23
2024-05-09T09:03:04.614Z,1.48
2024-05-09T09:05:31.742Z,1.30
2024-05-09T09:07:58.765Z,1.20
2024-05-09T09:10:31.640Z,1.35
2024-05-09T09:13:03.477Z,1.25
2024-05-09T09:15:30.421Z,1.30
2024-05-09T09:17:58.359Z,1.00
2024-05-09T09:20:36.302Z,1.00
2024-05-09T09:23:04.345Z,1.10
2024-05-09T09:25:31.438Z,1.25
2024-05-09T09:27:58.533Z,1.10
2024-05-09T09:30:35.063Z,1.33
2024-05-09T09:33:05.088Z,1.10
2024-05-09T09:35:32.281Z,1.08
2024-05-09T09:38:01.959Z,1.27
2024-05-09T09:40:34.809Z,1.23
2024-05-09T09:43:07.199Z,1.42
2024-05-09T09:45:34.417Z,1.05
2024-05-09T09:48:01.260Z,1.00
2024-05-09T09:50:34.035Z,1.10
2024-05-09T09:53:02.054Z,1.30
2024-05-09T09:55:28.938Z,1.20
2024-05-09T09:57:56.188Z,1.00
2024-05-09T10:00:29.999Z,0.90
2024-05-09T10:02:59.517Z,1.05
2024-05-09T10:05:26.760Z,1.10
2024-05-09T10:07:53.716Z,1.10
2024-05-09T10:10:31.346Z,0.90
2024-05-09T10:13:00.960Z,1.00
2024-05-09T10:15:27.959Z,0.90
2024-05-09T10:17:55.000Z,1.48
2024-05-09T10:20:28.043Z,1.20
2024-05-09T10:22:58.938Z,1.08
2024-05-09T10:25:25.796Z,1.05
2024-05-09T10:27:56.069Z,1.10
2024-05-09T10:30:29.640Z,0.93
2024-05-09T10:33:02.511Z,1.23
2024-05-09T10:35:31.458Z,1.40
2024-05-09T10:38:03.355Z,1.10
2024-05-09T10:40:31.733Z,0.98
2024-05-09T10:43:00.565Z,1.05
2024-05-09T10:45:28.736Z,1.00
2024-05-09T10:47:55.620Z,1.10
2024-05-09T10:50:28.435Z,0.90
2024-05-09T10:52:58.463Z,1.10
2024-05-09T10:55:25.427Z,1.10
2024-05-09T10:57:52.235Z,1.02
2024-05-09T11:00:27.402Z,0.93
2024-05-09T11:02:59.971Z,0.95
2024-05-09T11:05:26.852Z,0.90
2024-05-09T11:07:53.719Z,1.10
2024-05-09T11:10:27.418Z,0.95
2024-05-09T11:12:58.701Z,1.08
2024-05-09T11:15:26.025Z,1.20
2024-05-09T11:17:52.908Z,1.00
2024-05-09T11:20:26.706Z,1.77
2024-05-09T11:22:57.791Z,1.55
2024-05-09T11:25:24.599Z,1.40
2024-05-09T11:27:51.417Z,0.90
2024-05-09T11:30:26.783Z,1.02
2024-05-09T11:32:58.800Z,0.80
2024-05-09T11:35:26.577Z,1.40
2024-05-09T11:37:53.294Z,0.95
2024-05-09T11:40:25.558Z,1.08
2024-05-09T11:42:58.782Z,1.20
2024-05-09T11:45:25.581Z,0.90
2024-05-09T11:47:52.397Z,0.98
2024-05-09T11:50:27.098Z,1.10
2024-05-09T11:52:57.176Z,1.00
2024-05-09T11:55:27.768Z,0.90
2024-05-09T11:57:55.471Z,1.00
2024-05-09T12:00:29.638Z,1.10
2024-05-09T12:03:05.161Z,1.20
2024-05-09T12:05:33.137Z,1.30
2024-05-09T12:08:00.497Z,1.13
2024-05-09T12:10:33.107Z,0.85
2024-05-09T12:13:03.184Z,1.27
2024-05-09T12:15:31.061Z,0.95
2024-05-09T12:18:00.215Z,1.05
2024-05-09T12:20:36.196Z,0.98
2024-05-09T12:23:05.744Z,1.13
2024-05-09T12:25:33.127Z,0.90
2024-05-09T12:28:00.328Z,0.95
2024-05-09T12:30:35.537Z,1.33
2024-05-09T12:33:07.304Z,0.90
2024-05-09T12:35:34.320Z,0.80
2024-05-09T12:38:01.129Z,1.23
2024-05-09T12:40:35.515Z,0.98
2024-05-09T12:43:06.493Z,0.93
2024-05-09T12:45:33.670Z,0.98
2024-05-09T12:48:00.813Z,0.90
2024-05-09T12:50:32.579Z,0.82
2024-05-09T12:53:01.921Z,1.00
2024-05-09T12:55:33.920Z,1.00
2024-05-09T12:58:07.758Z,1.05
2024-05-09T13:00:34.936Z,1.02
2024-05-09T13:03:02.003Z,1.42
2024-05-09T13:05:29.351Z,0.80
2024-05-09T13:07:57.035Z,0.93
2024-05-09T13:10:31.057Z,0.98
2024-05-09T13:13:00.479Z,1.00
2024-05-09T13:15:31.286Z,1.00
2024-05-09T13:18:01.658Z,0.90
2024-05-09T13:20:33.581Z,1.33
2024-05-09T13:23:05.891Z,0.80
2024-05-09T13:25:35.002Z,1.20
2024-05-09T13:28:02.454Z,1.25
2024-05-09T13:30:38.093Z,1.10
2024-05-09T13:33:12.428Z,1.15
2024-05-09T13:35:45.568Z,0.82
2024-05-09T13:38:16.079Z,1.02
2024-05-09T13:40:42.915Z,0.88
2024-05-09T13:43:09.765Z,0.95
2024-05-09T13:45:36.496Z,1.05
2024-05-09T13:48:04.119Z,0.75
2024-05-09T13:50:35.100Z,1.60
2024-05-09T13:53:05.996Z,1.10
2024-05-09T13:55:34.002Z,0.80
2024-05-09T13:58:01.099Z,0.90
2024-05-09T14:00:41.426Z,0.95
2024-05-09T14:03:13.722Z,0.82
2024-05-09T14:05:40.644Z,0.95
2024-05-09T14:08:08.604Z,0.93
2024-05-09T14:10:35.675Z,1.10
2024-05-09T14:13:02.583Z,1.08
2024-05-09T14:15:29.624Z,0.95
2024-05-09T14:17:56.410Z,0.90
2024-05-09T14:20:30.407Z,0.90
2024-05-09T14:22:59.679Z,1.08
2024-05-09T14:25:30.124Z,0.90
2024-05-09T14:28:00.208Z,1.15
2024-05-09T14:30:34.704Z,1.15
2024-05-09T14:33:05.110Z,1.00
2024-05-09T14:35:32.267Z,0.95
2024-05-09T14:37:59.106Z,1.67
2024-05-09T14:40:36.457Z,1.15
2024-05-09T14:43:08.313Z,0.75
2024-05-09T14:45:35.530Z,1.08
2024-05-09T14:48:03.265Z,0.80
2024-05-09T14:50:36.049Z,1.00
2024-05-09T14:53:06.828Z,1.20
2024-05-09T14:55:39.824Z,1.13
2024-05-09T14:58:07.909Z,0.85
2024-05-09T15:00:41.508Z,0.90
2024-05-09T15:03:11.605Z,1.20
2024-05-09T15:05:38.473Z,0.85
2024-05-09T15:08:06.977Z,1.25
2024-05-09T15:10:36.109Z,0.80
2024-05-09T15:13:04.282Z,0.90
2024-05-09T15:15:31.319Z,0.77
2024-05-09T15:18:01.345Z,0.95
2024-05-09T15:20:34.519Z,0.93
2024-05-09T15:23:03.744Z,0.77
2024-05-09T15:25:30.842Z,1.02
2024-05-09T15:27:57.835Z,1.25
2024-05-09T15:30:30.686Z,1.00
2024-05-09T15:33:00.098Z,0.85
2024-05-09T15:35:27.119Z,0.90
2024-05-09T15:37:53.862Z,0.98
2024-05-09T15:40:30.552Z,0.90
2024-05-09T15:43:04.627Z,1.27
2024-05-09T15:45:32.062Z,1.00
2024-05-09T15:47:59.136Z,1.00
2024-05-09T15:50:35.636Z,0.73
2024-05-09T15:53:06.855Z,0.60
2024-05-09T15:55:34.719Z,1.10
2024-05-09T15:58:02.155Z,0.80
2024-05-09T16:00:36.844Z,0.98
2024-05-09T16:03:07.445Z,1.00
2024-05-09T16:05:34.532Z,0.80
2024-05-09T16:08:01.418Z,0.82
2024-05-09T16:10:32.657Z,1.13
2024-05-09T16:13:01.343Z,0.98
2024-05-09T16:15:28.334Z,0.95
2024-05-09T16:17:55.328Z,0.80
2024-05-09T16:20:33.738Z,0.85
2024-05-09T16:23:06.101Z,0.75
2024-05-09T16:25:32.805Z,0.93
2024-05-09T16:27:59.671Z,0.90
2024-05-09T16:30:33.745Z,1.00
2024-05-09T16:33:03.754Z,0.93
2024-05-09T16:35:31.253Z,0.95
2024-05-09T16:37:57.976Z,0.80
2024-05-09T16:40:33.870Z,0.85
2024-05-09T16:43:05.470Z,1.10
2024-05-09T16:45:33.248Z,0.93
2024-05-09T16:48:00.532Z,1.02
2024-05-09T16:50:32.532Z,1.02
2024-05-09T16:53:01.806Z,0.85
2024-05-09T16:55:28.731Z,0.93
2024-05-09T16:57:55.727Z,0.95
2024-05-09T17:00:34.724Z,0.80
2024-05-09T17:03:07.628Z,0.85
2024-05-09T17:05:35.398Z,1.10
2024-05-09T17:08:02.614Z,1.17
2024-05-09T17:10:33.285Z,0.90
2024-05-09T17:13:06.565Z,0.90
2024-05-09T17:15:34.917Z,0.80
2024-05-09T17:18:02.184Z,0.90
2024-05-09T17:20:33.754Z,1.00
2024-05-09T17:23:03.166Z,1.02
2024-05-09T17:25:30.025Z,1.23
2024-05-09T17:27:57.192Z,0.90
2024-05-09T17:30:32.170Z,0.90
2024-05-09T17:33:03.849Z,0.90
2024-05-09T17:35:31.695Z,0.90
2024-05-09T17:37:59.798Z,1.05
2024-05-09T17:40:33.114Z,0.80
2024-05-09T17:43:03.396Z,0.90
2024-05-09T17:45:30.708Z,0.90
2024-05-09T17:47:58.030Z,1.02
2024-05-09T17:50:31.432Z,0.90
2024-05-09T17:53:02.364Z,0.90
2024-05-09T17:55:29.606Z,1.02
2024-05-09T17:57:56.550Z,0.90
2024-05-09T18:00:33.350Z,0.88
2024-05-09T18:03:06.422Z,0.80
2024-05-09T18:05:34.742Z,0.90
2024-05-09T18:08:01.651Z,0.90
2024-05-09T18:10:35.229Z,0.90
2024-05-09T18:13:06.136Z,0.82
2024-05-09T18:15:33.524Z,0.95
2024-05-09T18:18:00.573Z,0.85
2024-05-09T18:20:37.353Z,1.15
2024-05-09T18:23:09.684Z,0.82
2024-05-09T18:25:36.555Z,0.90
2024-05-09T18:28:03.516Z,1.00
2024-05-09T18:30:34.947Z,1.35
2024-05-09T18:33:04.966Z,0.98
2024-05-09T18:35:33.268Z,0.90
2024-05-09T18:38:00.192Z,1.00
2024-05-09T18:40:33.648Z,1.13
2024-05-09T18:43:04.245Z,0.85
2024-05-09T18:45:31.361Z,1.15
2024-05-09T18:47:58.543Z,0.90
2024-05-09T18:50:34.215Z,0.85
2024-05-09T18:53:07.780Z,0.90
2024-05-09T18:55:35.005Z,0.80
2024-05-09T18:58:01.971Z,1.40
2024-05-09T19:00:35.342Z,0.80
2024-05-09T19:03:09.356Z,0.98
2024-05-09T19:05:38.777Z,1.15
2024-05-09T19:08:06.204Z,0.82
2024-05-09T19:10:35.001Z,1.00
2024-05-09T19:13:06.870Z,0.93
2024-05-09T19:15:37.809Z,1.00
2024-05-09T19:18:04.948Z,0.80
2024-05-09T19:20:34.667Z,0.85
2024-05-09T19:23:02.929Z,0.95
2024-05-09T19:25:29.807Z,0.93
2024-05-09T19:27:56.634Z,0.90
2024-05-09T19:30:30.518Z,1.00
2024-05-09T19:33:05.709Z,0.75
2024-05-09T19:35:32.839Z,0.95
2024-05-09T19:37:59.806Z,0.93
2024-05-09T19:40:31.413Z,0.90
2024-05-09T19:43:00.663Z,0.88
2024-05-09T19:45:27.597Z,0.90
2024-05-09T19:47:54.674Z,1.27
2024-05-09T19:50:30.221Z,1.00
2024-05-09T19:53:03.279Z,1.02
2024-05-09T19:55:30.094Z,0.90
2024-05-09T19:57:57.162Z,1.30
2024-05-09T20:00:32.496Z,1.35
2024-05-09T20:03:02.695Z,1.00
2024-05-09T20:05:32.801Z,0.90
2024-05-09T20:08:00.024Z,1.00
2024-05-09T20:10:31.803Z,1.15
2024-05-09T20:13:00.863Z,0.90
2024-05-09T20:15:27.640Z,1.67
2024-05-09T20:17:55.122Z,1.10
2024-05-09T20:20:32.495Z,0.98
2024-05-09T20:23:04.655Z,1.05
2024-05-09T20:25:31.365Z,1.13
2024-05-09T20:27:58.313Z,1.20
2024-05-09T20:30:31.462Z,0.85
2024-05-09T20:33:00.404Z,1.00
2024-05-09T20:35:30.602Z,1.10
2024-05-09T20:37:57.456Z,1.00
2024-05-09T20:40:29.254Z,1.30
2024-05-09T20:43:00.391Z,1.00
2024-05-09T20:45:27.298Z,1.30
2024-05-09T20:47:54.197Z,0.82
2024-05-09T20:50:29.008Z,1.20
2024-05-09T20:53:03.578Z,0.90
2024-05-09T20:55:30.511Z,0.95
2024-05-09T20:57:57.647Z,1.42
2024-05-09T21:00:33.892Z,1.42
2024-05-09T21:03:06.614Z,1.00
2024-05-09T21:05:34.580Z,1.20
2024-05-09T21:08:01.842Z,1.20
2024-05-09T21:10:32.743Z,1.00
2024-05-09T21:13:01.166Z,1.27
2024-05-09T21:15:28.216Z,1.17
2024-05-09T21:17:55.264Z,1.13
2024-05-09T21:20:28.744Z,1.92
2024-05-09T21:22:58.347Z,1.63
2024-05-09T21:25:25.169Z,1.00
2024-05-09T21:27:52.106Z,1.30
2024-05-09T21:30:28.428Z,0.90
2024-05-09T21:33:05.269Z,1.00
2024-05-09T21:35:32.186Z,0.95
2024-05-09T21:37:58.924Z,0.90
2024-05-09T21:40:33.286Z,1.10
2024-05-09T21:43:02.386Z,1.70
2024-05-09T21:45:29.240Z,1.00
2024-05-09T21:47:56.235Z,1.02
2024-05-09T21:50:28.715Z,1.38
2024-05-09T21:53:03.684Z,1.17
2024-05-09T21:55:30.383Z,1.25
2024-05-09T21:57:57.225Z,1.23
2024-05-09T22:00:32.116Z,1.30
2024-05-09T22:03:03.655Z,1.30
2024-05-09T22:05:30.617Z,1.10
2024-05-09T22:07:57.522Z,1.00
2024-05-09T22:10:30.614Z,1.10
2024-05-09T22:13:01.118Z,1.33
2024-05-09T22:15:28.254Z,1.45
2024-05-09T22:17:56.335Z,0.85
2024-05-09T22:20:32.853Z,1.20
2024-05-09T22:23:03.398Z,1.13
2024-05-09T22:25:31.300Z,1.10
2024-05-09T22:27:58.966Z,1.33
2024-05-09T22:30:34.312Z,0.82
2024-05-09T22:33:05.755Z,1.23
2024-05-09T22:35:32.871Z,2.15
2024-05-09T22:37:59.711Z,1.50
2024-05-09T22:40:38.174Z,0.90
2024-05-09T22:43:13.160Z,1.13
2024-05-09T22:45:40.081Z,1.30
2024-05-09T22:48:08.334Z,1.42
2024-05-09T22:50:35.377Z,1.10
2024-05-09T22:53:02.258Z,1.10
2024-05-09T22:55:29.124Z,1.33
2024-05-09T22:57:56.052Z,0.90
2024-05-09T23:00:30.965Z,1.30
2024-05-09T23:03:02.709Z,1.27
2024-05-09T23:05:30.775Z,1.23
2024-05-09T23:07:57.685Z,1.30
2024-05-09T23:10:31.578Z,1.30
2024-05-09T23:13:02.791Z,0.95
2024-05-09T23:15:29.764Z,1.30
2024-05-09T23:17:57.304Z,1.00
2024-05-09T23:22:54.108Z,1.20
2024-05-09T23:25:20.897Z,1.27
2024-05-09T23:27:47.697Z,1.20
2024-05-09T23:30:21.954Z,1.20
2024-05-09T23:32:55.767Z,1.00
2024-05-09T23:35:22.606Z,1.13
2024-05-09T23:37:49.322Z,1.02
2024-05-09T23:40:19.011Z,0.98
2024-05-09T23:42:49.486Z,1.30
2024-05-09T23:45:16.269Z,1.25
2024-05-09T23:47:43.449Z,1.30
2024-05-09T23:50:16.790Z,1.33
2024-05-09T23:52:50.264Z,1.23
2024-05-09T23:55:17.215Z,1.10
2024-05-09T23:57:44.079Z,1.00
